Time;durP1;ratioP1;P1;durP2;ratioP2;P2;SDS_P1;SDS_P2;PMS_P1;PMS_P2;Temp;Humidity;BMP_temperature;BMP_pressure;BME280_temperature;BME280_humidity;BME280_pressure;Samples;Min_cycle;Max_cycle;Signal;HPM_P1;HPM_P2
2023/09/26 00:00:24;;;;;;;12.68;7.78;;;;;;;18.78;88.14;101539.91;1856747;77;21060;-76
2023/09/26 00:02:54;;;;;;;12.78;8.48;;;;;;;18.79;88.13;101545.77;1856689;77;21478;-77
2023/09/26 00:05:24;;;;;;;11.73;8.38;;;;;;;18.78;88.23;101544.92;1856558;77;21640;-78
2023/09/26 00:07:54;;;;;;;10.53;8.33;;;;;;;18.78;88.17;101538.52;1856953;77;20973;-77
2023/09/26 00:10:24;;;;;;;14.45;8.03;;;;;;;18.76;88.21;101539.28;1856860;77;21048;-77
2023/09/26 00:12:53;;;;;;;11.10;8.05;;;;;;;18.72;88.32;101532.47;1856638;77;21036;-79
2023/09/26 00:15:23;;;;;;;12.05;7.80;;;;;;;18.70;88.43;101538.25;1856914;77;20980;-76
2023/09/26 00:17:51;;;;;;;13.65;7.75;;;;;;;18.68;88.44;101536.23;1856524;77;21034;-76
2023/09/26 00:20:24;;;;;;;13.00;8.68;;;;;;;18.65;88.42;101538.07;1856765;77;21444;-76
2023/09/26 00:22:53;;;;;;;13.30;9.10;;;;;;;18.63;88.55;101540.22;1856785;77;21016;-77
2023/09/26 00:25:23;;;;;;;13.70;8.78;;;;;;;18.60;88.71;101534.55;1856823;77;21020;-76
2023/09/26 00:27:52;;;;;;;15.55;9.03;;;;;;;18.60;88.82;101537.86;1856697;77;21455;-79
2023/09/26 00:30:26;;;;;;;13.75;8.93;;;;;;;18.59;88.87;101541.17;1856548;77;21482;-76
2023/09/26 00:32:55;;;;;;;13.13;8.53;;;;;;;18.56;88.98;101540.23;1856723;77;21533;-79
2023/09/26 00:35:25;;;;;;;15.30;8.88;;;;;;;18.56;89.09;101540.23;1856557;77;21064;-77
2023/09/26 00:37:54;;;;;;;16.45;9.00;;;;;;;18.53;89.10;101543.45;1856832;77;21035;-78
2023/09/26 00:40:24;;;;;;;14.15;9.43;;;;;;;18.50;89.17;101543.04;1856888;77;21393;-76
2023/09/26 00:42:53;;;;;;;13.75;9.80;;;;;;;18.47;89.39;101545.73;1856664;77;21090;-76
2023/09/26 00:45:23;;;;;;;14.95;9.13;;;;;;;18.49;89.39;101542.73;1856911;77;21008;-75
2023/09/26 00:47:52;;;;;;;14.53;8.90;;;;;;;18.47;89.48;101547.11;1856845;77;21055;-76
2023/09/26 00:50:22;;;;;;;12.03;8.78;;;;;;;18.45;89.66;101549.26;1856983;77;21001;-76
2023/09/26 00:52:53;;;;;;;15.88;8.80;;;;;;;18.44;89.61;101545.31;1856970;77;21100;-77
2023/09/26 00:55:24;;;;;;;16.25;9.13;;;;;;;18.45;89.73;101552.03;1856665;77;21060;-78
2023/09/26 00:57:54;;;;;;;12.10;8.78;;;;;;;18.44;89.84;101548.94;1856835;77;20980;-76
2023/09/26 01:00:24;;;;;;;12.85;9.50;;;;;;;18.42;89.92;101547.47;1857087;77;21008;-77
2023/09/26 01:02:53;;;;;;;17.67;9.28;;;;;;;18.40;90.03;101549.07;1856770;77;21031;-77
2023/09/26 01:05:25;;;;;;;15.58;9.88;;;;;;;18.38;90.08;101548.44;1856954;77;21009;-76
2023/09/26 01:07:55;;;;;;;14.90;9.68;;;;;;;18.31;90.23;101554.03;1856852;77;21064;-77
2023/09/26 01:10:24;;;;;;;13.62;9.50;;;;;;;18.29;90.45;101555.31;1856724;77;21005;-76
2023/09/26 01:12:53;;;;;;;15.80;9.60;;;;;;;18.29;90.62;101555.31;1856878;77;21016;-77
2023/09/26 01:15:38;;;;;;;13.48;9.40;;;;;;;18.32;90.77;101559.04;1824380;77;21455;-77
2023/09/26 01:18:13;;;;;;;14.33;9.40;;;;;;;18.33;90.73;101549.64;1856584;77;21039;-76
2023/09/26 01:20:45;;;;;;;14.03;10.15;;;;;;;18.29;90.69;101551.16;1856884;77;21016;-77
2023/09/26 01:23:14;;;;;;;15.90;10.15;;;;;;;18.25;90.82;101541.03;1856932;77;21078;-78
2023/09/26 01:25:43;;;;;;;15.25;10.70;;;;;;;18.22;90.84;101540.09;1856865;77;21048;-77
2023/09/26 01:28:16;;;;;;;16.23;10.38;;;;;;;18.23;91.00;101540.94;1856920;77;21091;-78
2023/09/26 01:30:46;;;;;;;18.25;10.93;;;;;;;18.24;91.01;101537.95;1856673;77;21000;-75
2023/09/26 01:33:19;;;;;;;16.02;11.22;;;;;;;18.22;91.00;101539.23;1823538;77;21024;-78
2023/09/26 01:35:51;;;;;;;15.65;11.08;;;;;;;18.19;91.07;101539.64;1856619;77;20993;-76
2023/09/26 01:38:21;;;;;;;17.77;11.12;;;;;;;18.18;91.15;101546.27;1856985;77;21043;-78
2023/09/26 01:40:51;;;;;;;18.10;12.43;;;;;;;18.18;91.15;101544.34;1824854;77;21016;-77
2023/09/26 01:43:20;;;;;;;23.20;11.22;;;;;;;18.16;91.07;101552.56;1856885;77;21087;-78
2023/09/26 01:45:49;;;;;;;19.75;12.28;;;;;;;18.15;91.22;101549.48;1856990;77;21434;-76
2023/09/26 01:48:19;;;;;;;20.43;13.70;;;;;;;18.13;91.24;101551.09;1856752;77;21040;-77
2023/09/26 01:50:47;;;;;;;22.73;13.25;;;;;;;18.11;91.37;101549.60;1856698;77;21008;-77
2023/09/26 01:53:16;;;;;;;20.45;14.68;;;;;;;18.09;91.49;101555.91;1856926;77;20996;-76
2023/09/26 01:55:45;;;;;;;22.37;14.10;;;;;;;18.06;91.58;101558.05;1856659;77;21059;-77
2023/09/26 01:58:15;;;;;;;24.95;14.40;;;;;;;18.04;91.54;101555.17;1857076;77;21012;-76
2023/09/26 02:00:44;;;;;;;18.73;11.95;;;;;;;17.98;91.62;101559.67;1856590;77;21013;-78
2023/09/26 02:03:13;;;;;;;19.17;11.65;;;;;;;17.96;91.78;101556.27;1856930;77;21031;-77
2023/09/26 02:05:43;;;;;;;17.40;11.35;;;;;;;17.92;92.00;101566.63;1856653;77;21028;-78
2023/09/26 02:08:12;;;;;;;19.10;11.57;;;;;;;17.88;92.30;101575.92;1856907;77;21020;-77
2023/09/26 02:10:41;;;;;;;18.70;11.68;;;;;;;17.89;92.63;101576.77;1856928;77;21082;-77
2023/09/26 02:13:10;;;;;;;17.77;12.13;;;;;;;17.94;92.69;101580.59;1857019;77;21397;-76
2023/09/26 02:15:39;;;;;;;20.17;11.90;;;;;;;17.96;92.53;101584.00;1856651;77;21001;-75
2023/09/26 02:18:08;;;;;;;18.85;13.05;;;;;;;17.96;92.43;101578.45;1856655;77;21040;-75
2023/09/26 02:20:37;;;;;;;21.50;12.73;;;;;;;17.96;92.47;101581.23;1856836;77;21025;-77
2023/09/26 02:23:06;;;;;;;20.32;11.80;;;;;;;18.00;92.47;101578.34;1856888;77;21405;-77
2023/09/26 02:25:35;;;;;;;16.85;10.98;;;;;;;18.01;92.29;101579.19;1856732;77;21020;-77
2023/09/26 02:28:04;;;;;;;15.98;11.15;;;;;;;18.01;92.13;101574.49;1856678;77;20996;-77
2023/09/26 02:30:34;;;;;;;17.50;10.70;;;;;;;18.00;92.02;101575.56;1856896;77;21043;-77
2023/09/26 02:33:03;;;;;;;16.65;10.98;;;;;;;18.00;92.03;101576.09;1856942;77;21008;-76
2023/09/26 02:35:32;;;;;;;18.67;11.40;;;;;;;17.98;91.94;101574.08;1857917;77;21095;-76
2023/09/26 02:38:00;;;;;;;18.60;12.55;;;;;;;18.00;91.94;101574.71;1860149;77;21008;-77
2023/09/26 02:40:29;;;;;;;18.67;11.57;;;;;;;17.99;91.75;101574.39;1860042;77;21036;-77
2023/09/26 02:42:58;;;;;;;23.98;13.03;;;;;;;17.97;91.72;101574.61;1860096;77;21396;-77
2023/09/26 02:45:26;;;;;;;19.27;12.47;;;;;;;17.97;91.64;101586.24;1859971;77;21321;-76
2023/09/26 02:47:55;;;;;;;22.80;13.43;;;;;;;17.93;91.51;101589.98;1860089;77;21016;-76
2023/09/26 02:50:23;;;;;;;25.02;13.45;;;;;;;17.93;91.41;101585.82;1860075;77;20992;-77
2023/09/26 02:52:52;;;;;;;22.10;14.05;;;;;;;17.91;91.33;101584.34;1860080;77;20989;-77
2023/09/26 02:55:21;;;;;;;21.90;14.18;;;;;;;17.89;91.32;101587.33;1860121;77;21036;-77
2023/09/26 02:57:50;;;;;;;25.00;15.35;;;;;;;17.91;91.35;101589.88;1860065;77;21047;-76
2023/09/26 03:00:19;;;;;;;26.37;15.80;;;;;;;17.92;91.19;101591.05;1859890;77;21012;-77
2023/09/26 03:02:48;;;;;;;25.05;15.30;;;;;;;17.91;90.98;101592.13;1860035;77;21502;-77
2023/09/26 03:05:17;;;;;;;23.05;15.35;;;;;;;17.88;90.97;101596.72;1859953;77;21044;-78
2023/09/26 03:07:48;;;;;;;26.50;16.00;;;;;;;17.86;90.87;101601.62;1859839;77;21432;-76
2023/09/26 03:10:17;;;;;;;22.77;14.73;;;;;;;17.82;90.95;101600.36;1860080;77;21546;-75
2023/09/26 03:12:46;;;;;;;26.97;16.82;;;;;;;17.82;91.07;101603.66;1859868;77;20989;-76
2023/09/26 03:15:16;;;;;;;23.05;15.13;;;;;;;17.80;91.03;101610.81;1860060;77;20988;-77
2023/09/26 03:17:45;;;;;;;26.40;17.00;;;;;;;17.74;91.04;101616.69;1859980;77;21075;-77
2023/09/26 03:20:15;;;;;;;23.85;15.72;;;;;;;17.69;91.37;101614.23;1832299;77;21020;-78
2023/09/26 03:22:45;;;;;;;25.82;15.13;;;;;;;17.68;91.58;101609.23;1860312;77;21447;-77
2023/09/26 03:25:15;;;;;;;24.63;13.72;;;;;;;17.67;91.65;101609.44;1859877;77;21024;-77
2023/09/26 03:27:46;;;;;;;23.22;13.20;;;;;;;17.67;91.74;101610.30;1860063;77;21063;-77
2023/09/26 03:30:18;;;;;;;22.40;14.05;;;;;;;17.69;91.79;101608.16;1860322;77;21226;-76
2023/09/26 03:32:46;;;;;;;19.55;13.80;;;;;;;17.70;91.73;101615.41;1860015;77;20980;-78
2023/09/26 03:35:15;;;;;;;22.67;14.43;;;;;;;17.69;91.72;101614.23;1859495;76;21048;-78
2023/09/26 03:37:43;;;;;;;21.50;14.23;;;;;;;17.70;91.69;101614.02;1858119;77;21075;-78
2023/09/26 03:40:13;;;;;;;23.62;14.95;;;;;;;17.70;91.55;101615.41;1860149;77;21028;-78
2023/09/26 03:42:43;;;;;;;21.37;14.68;;;;;;;17.70;91.46;101614.02;1860005;77;21056;-77
2023/09/26 03:45:12;;;;;;;22.52;15.20;;;;;;;17.72;91.36;101616.05;1860182;77;21064;-77
2023/09/26 03:47:41;;;;;;;26.00;16.20;;;;;;;17.75;91.27;101614.77;1859889;77;21008;-76
2023/09/26 03:50:10;;;;;;;25.25;16.25;;;;;;;17.78;90.98;101612.95;1859904;77;21068;-76
2023/09/26 03:52:39;;;;;;;25.72;16.60;;;;;;;17.79;90.82;101618.81;1859912;77;21788;-78
2023/09/26 03:55:08;;;;;;;28.05;16.65;;;;;;;17.79;90.66;101621.58;1859879;77;21043;-76
2023/09/26 03:57:38;;;;;;;28.45;17.65;;;;;;;17.77;90.47;101619.56;1860107;77;20992;-71
2023/09/26 04:00:16;;;;;;;26.20;16.62;;;;;;;17.77;90.42;101622.33;1860065;77;21424;-77
2023/09/26 04:02:45;;;;;;;29.55;16.52;;;;;;;17.78;90.38;101625.95;1859923;77;21004;-77
2023/09/26 04:05:14;;;;;;;27.70;17.80;;;;;;;17.79;90.37;101625.74;1860032;77;21068;-75
2023/09/26 04:07:44;;;;;;;32.00;18.60;;;;;;;17.78;90.26;101632.89;1859955;77;21063;-78
2023/09/26 04:10:13;;;;;;;28.38;18.62;;;;;;;17.79;90.29;101631.29;1860021;77;21083;-77
2023/09/26 04:12:42;;;;;;;31.05;18.35;;;;;;;17.78;90.17;101625.95;1859950;77;21051;-77
2023/09/26 04:15:11;;;;;;;26.80;18.07;;;;;;;17.77;90.02;101632.03;1859918;77;21020;-76
2023/09/26 04:17:41;;;;;;;27.50;17.60;;;;;;;17.79;90.04;101623.50;1869105;77;21041;-77
2023/09/26 04:20:16;;;;;;;25.62;15.85;;;;;;;17.80;89.92;101623.82;1833493;78;21046;-78
2023/09/26 04:22:47;;;;;;;23.12;15.72;;;;;;;17.81;89.78;101626.37;1831042;78;21093;-76
2023/09/26 04:25:16;;;;;;;23.40;16.02;;;;;;;17.81;89.76;101629.16;1833318;78;21030;-77
2023/09/26 04:27:45;;;;;;;23.62;14.10;;;;;;;17.81;89.68;101630.54;1833290;78;21019;-77
2023/09/26 04:30:14;;;;;;;21.23;13.68;;;;;;;17.80;89.67;101636.30;1833295;78;21027;-77
2023/09/26 04:32:43;;;;;;;21.75;14.38;;;;;;;17.79;89.74;101631.29;1833276;78;21062;-77
2023/09/26 04:35:12;;;;;;;17.67;12.93;;;;;;;17.80;89.76;101634.91;1833392;78;21014;-77
2023/09/26 04:37:41;;;;;;;21.33;13.98;;;;;;;17.83;89.71;101638.11;1831598;78;21034;-77
2023/09/26 04:40:12;;;;;;;22.05;14.40;;;;;;;17.83;89.60;101632.56;1824817;78;21066;-77
2023/09/26 04:42:48;;;;;;;19.87;14.33;;;;;;;17.85;89.54;101638.74;1824880;78;21845;-77
2023/09/26 04:45:18;;;;;;;22.77;14.03;;;;;;;17.86;89.44;101634.90;1824876;78;21019;-76
2023/09/26 04:47:47;;;;;;;22.95;14.38;;;;;;;17.88;89.15;101639.70;1824960;78;21003;-78
2023/09/26 04:50:16;;;;;;;24.75;16.02;;;;;;;17.86;89.12;101639.59;1824925;78;21004;-77
2023/09/26 04:52:45;;;;;;;27.45;14.30;;;;;;;17.86;89.13;101647.38;1824867;78;21046;-77
2023/09/26 04:55:14;;;;;;;23.77;13.80;;;;;;;17.89;89.10;101648.34;1825006;78;21016;-76
2023/09/26 04:57:43;;;;;;;19.10;12.85;;;;;;;17.90;89.12;101650.04;1824744;78;21003;-76
2023/09/26 05:00:17;;;;;;;20.00;13.88;;;;;;;17.94;88.91;101652.70;1824870;78;21059;-78
2023/09/26 05:02:45;;;;;;;19.30;11.85;;;;;;;17.92;88.80;101646.52;1824883;78;20987;-77
2023/09/26 05:05:15;;;;;;;20.43;13.32;;;;;;;17.92;88.60;101647.91;1824765;78;21047;-77
2023/09/26 05:07:48;;;;;;;20.37;12.58;;;;;;;17.93;88.62;101650.99;1824888;78;21074;-78
2023/09/26 05:10:18;;;;;;;18.67;12.15;;;;;;;17.95;88.56;101653.02;1825070;77;21014;-77
2023/09/26 05:12:47;;;;;;;17.37;10.88;;;;;;;17.96;88.39;101658.88;1824782;78;21442;-77
2023/09/26 05:15:17;;;;;;;16.70;11.20;;;;;;;17.97;88.41;101656.97;1824873;77;21015;-78
2023/09/26 05:17:52;;;;;;;16.15;11.35;;;;;;;17.97;88.50;101663.36;1824570;78;21086;-76
2023/09/26 05:20:23;;;;;;;19.23;11.40;;;;;;;17.99;88.35;101659.84;1824919;78;21447;-77
2023/09/26 05:22:53;;;;;;;14.35;10.05;;;;;;;18.00;88.36;101656.00;1824828;78;21103;-76
2023/09/26 05:25:23;;;;;;;16.35;11.00;;;;;;;18.04;88.19;101662.81;1825189;78;21039;-77
2023/09/26 05:27:52;;;;;;;17.42;11.05;;;;;;;18.06;88.05;101663.45;1824913;77;21051;-77
2023/09/26 05:30:22;;;;;;;16.70;10.80;;;;;;;18.04;87.86;101660.04;1824848;78;21030;-78
2023/09/26 05:32:52;;;;;;;15.58;11.48;;;;;;;18.05;87.97;101657.59;1825040;78;20991;-78
2023/09/26 05:35:23;;;;;;;16.32;11.88;;;;;;;18.08;87.93;101665.16;1825173;78;21047;-78
2023/09/26 05:37:52;;;;;;;21.95;11.50;;;;;;;18.11;87.78;101657.78;1825935;78;21976;-77
2023/09/26 05:40:22;;;;;;;15.98;10.82;;;;;;;18.15;87.74;101655.75;1833666;78;20987;-77
2023/09/26 05:42:51;;;;;;;15.72;11.20;;;;;;;18.20;87.54;101662.03;1833133;78;21038;-75
2023/09/26 05:45:20;;;;;;;21.40;12.40;;;;;;;18.25;87.28;101660.87;1833240;78;21430;-78
2023/09/26 05:47:49;;;;;;;19.02;12.45;;;;;;;18.27;86.86;101662.37;1833485;78;21563;-77
2023/09/26 05:50:19;;;;;;;17.67;12.73;;;;;;;18.30;86.64;101659.69;1833369;78;21450;-78
2023/09/26 05:52:48;;;;;;;22.35;13.75;;;;;;;18.33;86.33;101663.42;1833258;78;21445;-78
2023/09/26 05:55:18;;;;;;;22.00;14.35;;;;;;;18.34;86.07;101660.96;1833301;78;21007;-78
2023/09/26 05:57:48;;;;;;;25.32;15.38;;;;;;;18.37;85.86;101665.53;1833367;78;21473;-77
2023/09/26 06:00:18;;;;;;;24.35;16.60;;;;;;;18.39;85.62;101659.77;1833479;78;21023;-77
2023/09/26 06:02:47;;;;;;;20.82;14.03;;;;;;;18.39;85.21;101662.55;1833617;77;21019;-78
2023/09/26 06:05:17;;;;;;;23.05;14.65;;;;;;;18.38;85.12;101664.47;1833438;78;21011;-77
2023/09/26 06:07:46;;;;;;;25.08;16.32;;;;;;;18.38;85.04;101661.69;1833302;78;21062;-78
2023/09/26 06:10:15;;;;;;;27.20;18.45;;;;;;;18.38;84.95;101665.85;1833361;78;21423;-76
2023/09/26 06:12:44;;;;;;;24.00;16.10;;;;;;;18.37;84.93;101661.91;1833702;78;21094;-77
2023/09/26 06:15:13;;;;;;;23.30;16.15;;;;;;;18.37;84.88;101671.63;1833399;78;21047;-77
2023/09/26 06:17:42;;;;;;;23.18;16.05;;;;;;;18.36;84.86;101674.08;1833372;78;20991;-77
2023/09/26 06:20:12;;;;;;;22.87;15.00;;;;;;;18.40;84.87;101676.73;1833232;78;21039;-75
2023/09/26 06:22:41;;;;;;;20.32;13.78;;;;;;;18.46;84.91;101675.86;1833516;78;21019;-78
2023/09/26 06:25:10;;;;;;;20.88;14.30;;;;;;;18.53;84.79;101680.86;1833588;78;21030;-78
2023/09/26 06:27:40;;;;;;;20.68;14.23;;;;;;;18.58;84.56;101679.66;1833524;78;21046;-77
2023/09/26 06:30:11;;;;;;;22.07;13.62;;;;;;;18.62;84.28;101675.94;1833265;78;21608;-78
2023/09/26 06:32:41;;;;;;;19.32;12.68;;;;;;;18.69;84.26;101673.98;1833258;78;21023;-78
2023/09/26 06:35:10;;;;;;;19.10;13.30;;;;;;;18.80;84.04;101680.23;1833500;78;21031;-78
2023/09/26 06:37:39;;;;;;;21.12;13.18;;;;;;;18.92;83.40;101680.42;1833432;78;21050;-76
2023/09/26 06:40:10;;;;;;;22.73;13.50;;;;;;;18.98;82.91;101679.00;1824606;78;21097;-77
2023/09/26 06:42:39;;;;;;;17.77;11.95;;;;;;;19.04;82.71;101680.03;1862262;77;21003;-77
2023/09/26 06:45:10;;;;;;;18.23;12.18;;;;;;;19.12;82.27;101678.92;1823952;79;21047;-78
2023/09/26 06:47:39;;;;;;;18.00;12.35;;;;;;;19.17;81.70;101678.56;1824163;78;21011;-78
2023/09/26 06:50:10;;;;;;;16.00;12.50;;;;;;;19.22;81.27;101682.06;1824080;77;21031;-79
2023/09/26 06:52:39;;;;;;;18.27;14.03;;;;;;;19.29;80.81;101689.28;1802006;79;21470;-76
2023/09/26 06:55:10;;;;;;;17.48;13.40;;;;;;;19.36;80.07;101689.78;1862150;77;21034;-77
2023/09/26 06:57:39;;;;;;;19.30;14.55;;;;;;;19.37;79.36;101692.33;1862232;77;21090;-77
2023/09/26 07:00:13;;;;;;;20.00;12.58;;;;;;;19.36;79.12;101698.11;1824272;78;21008;-77
2023/09/26 07:02:44;;;;;;;18.90;13.32;;;;;;;19.35;78.97;101697.80;1862179;77;21508;-76
2023/09/26 07:05:13;;;;;;;18.25;12.28;;;;;;;19.28;78.52;101700.09;1824080;77;21035;-78
2023/09/26 07:07:42;;;;;;;19.10;12.65;;;;;;;19.20;78.76;101696.72;1824191;78;21469;-78
2023/09/26 07:10:11;;;;;;;20.65;11.97;;;;;;;19.20;78.91;101696.18;1862037;77;21050;-77
2023/09/26 07:12:40;;;;;;;16.32;12.05;;;;;;;19.17;78.92;101691.08;1862137;77;21017;-78
2023/09/26 07:15:13;;;;;;;14.55;11.65;;;;;;;19.16;79.07;101681.57;1862071;77;21470;-77
2023/09/26 07:17:42;;;;;;;17.60;11.15;;;;;;;19.18;79.20;101687.22;1862090;77;21042;-77
2023/09/26 07:20:16;;;;;;;15.13;10.85;;;;;;;19.21;79.34;101689.55;1862194;77;21054;-78
2023/09/26 07:22:45;;;;;;;17.60;10.82;;;;;;;19.24;79.21;101693.81;1824125;79;20988;-78
2023/09/26 07:25:15;;;;;;;22.52;10.88;;;;;;;19.25;78.91;101689.42;1824248;78;21000;-76
2023/09/26 07:27:44;;;;;;;20.95;11.48;;;;;;;19.25;78.79;101689.42;1824206;77;20963;-77
2023/09/26 07:30:15;;;;;;;15.75;11.03;;;;;;;19.26;78.88;101688.34;1824632;79;21110;-76
2023/09/26 07:32:44;;;;;;;19.85;12.75;;;;;;;19.28;78.61;101683.41;1862148;77;21003;-78
2023/09/26 07:35:13;;;;;;;15.53;11.88;;;;;;;19.28;78.24;101690.36;1824203;77;21027;-76
2023/09/26 07:37:42;;;;;;;18.37;10.90;;;;;;;19.25;78.17;101682.47;1824454;79;21504;-76
2023/09/26 07:40:11;;;;;;;24.65;11.10;;;;;;;19.27;78.08;101683.09;1832155;78;21109;-78
2023/09/26 07:42:41;;;;;;;22.45;11.05;;;;;;;19.28;77.99;101683.41;1833407;78;21031;-76
2023/09/26 07:45:14;;;;;;;16.02;10.18;;;;;;;19.38;78.14;101677.89;1833407;78;21062;-75
2023/09/26 07:47:41;;;;;;;18.85;10.93;;;;;;;19.65;77.79;101682.23;1833769;78;21027;-75
2023/09/26 07:50:10;;;;;;;17.23;10.95;;;;;;;20.01;76.89;101680.09;1833987;78;21098;-76
2023/09/26 07:52:40;;;;;;;16.05;10.50;;;;;;;20.42;75.73;101676.72;1833706;78;20979;-76
2023/09/26 07:55:09;;;;;;;16.90;10.10;;;;;;;20.87;73.93;101675.86;1828788;77;20995;-75
2023/09/26 07:57:39;;;;;;;18.20;11.22;;;;;;;21.25;71.00;101680.28;1824417;78;21022;-74
2023/09/26 08:00:13;;;;;;;17.23;10.45;;;;;;;21.58;69.71;101677.00;1816010;79;21016;-73
2023/09/26 08:02:47;;;;;;;16.77;10.43;;;;;;;21.88;68.95;101674.67;1777123;80;21071;-74
2023/09/26 08:05:17;;;;;;;15.95;10.18;;;;;;;22.23;67.41;101668.60;1792831;79;21030;-75
2023/09/26 08:07:48;;;;;;;18.95;10.55;;;;;;;22.53;66.23;101668.98;1792975;80;21093;-75
2023/09/26 08:10:17;;;;;;;12.43;9.68;;;;;;;22.81;65.04;101662.64;1798326;79;21066;-76
2023/09/26 08:12:46;;;;;;;14.75;10.03;;;;;;;23.07;64.10;101654.52;1823385;79;21022;-73
2023/09/26 08:15:15;;;;;;;13.93;10.38;;;;;;;23.34;62.73;101656.13;1819529;79;21007;-76
2023/09/26 08:17:44;;;;;;;14.80;9.98;;;;;;;23.61;61.40;101650.80;1823294;79;21504;-75
2023/09/26 08:20:14;;;;;;;14.58;10.30;;;;;;;23.88;60.51;101654.30;1819759;79;21050;-75
2023/09/26 08:22:44;;;;;;;15.25;9.65;;;;;;;24.05;59.04;101649.53;1823406;79;21494;-73
2023/09/26 08:25:13;;;;;;;12.93;9.78;;;;;;;24.19;58.86;101648.09;1819610;79;21058;-72
2023/09/26 08:27:42;;;;;;;15.10;9.63;;;;;;;24.31;58.15;101650.25;1809261;79;21072;-74
2023/09/26 08:30:11;;;;;;;15.23;9.95;;;;;;;24.44;57.55;101642.58;1786607;80;21647;-76
2023/09/26 08:32:42;;;;;;;14.70;9.23;;;;;;;24.48;56.70;101646.55;1800686;80;21024;-75
2023/09/26 08:35:14;;;;;;;17.57;9.68;;;;;;;24.49;56.72;101646.84;1774812;80;21444;-76
2023/09/26 08:37:45;;;;;;;16.65;9.90;;;;;;;24.53;56.60;101642.41;1800586;80;21056;-75
2023/09/26 08:40:14;;;;;;;17.12;10.10;;;;;;;24.49;55.98;101644.89;1793479;80;21160;-77
2023/09/26 08:42:49;;;;;;;14.18;10.03;;;;;;;24.40;55.69;101642.80;1791168;80;21084;-75
2023/09/26 08:45:18;;;;;;;16.45;11.30;;;;;;;24.24;56.17;101644.52;1791156;80;21522;-76
2023/09/26 08:47:48;;;;;;;19.87;10.75;;;;;;;24.12;56.49;101639.02;1790904;80;21091;-77
2023/09/26 08:50:17;;;;;;;16.40;9.73;;;;;;;24.04;56.60;101643.63;1790892;80;21013;-75
2023/09/26 08:52:46;;;;;;;13.88;9.43;;;;;;;23.98;56.71;101653.91;1791183;80;21448;-75
2023/09/26 08:55:15;;;;;;;15.72;9.58;;;;;;;23.79;56.66;101636.24;1791004;80;21737;-74
2023/09/26 08:57:45;;;;;;;12.75;8.93;;;;;;;23.63;57.25;101629.00;1791122;80;21092;-75
2023/09/26 09:00:15;;;;;;;13.53;9.33;;;;;;;23.49;57.39;101629.01;1791183;80;21278;-75
2023/09/26 09:02:44;;;;;;;13.50;9.13;;;;;;;23.42;57.49;101634.47;1829458;78;20995;-76
2023/09/26 09:05:13;;;;;;;13.15;9.88;;;;;;;23.28;57.88;101634.77;1885660;76;21007;-75
2023/09/26 09:07:43;;;;;;;13.93;9.98;;;;;;;23.17;58.43;101632.03;1810960;79;21047;-75
2023/09/26 09:10:12;;;;;;;18.42;10.65;;;;;;;23.12;58.91;101638.93;1885669;76;21078;-75
2023/09/26 09:12:42;;;;;;;15.83;9.63;;;;;;;23.05;58.69;101636.29;1810871;79;21498;-75
2023/09/26 09:15:21;;;;;;;12.47;8.85;;;;;;;22.93;59.07;101629.36;1885313;76;20975;-75
2023/09/26 09:17:52;;;;;;;11.53;8.98;;;;;;;22.88;59.28;101626.46;1811041;79;21016;-75
2023/09/26 09:20:32;;;;;;;13.40;9.70;;;;;;;22.86;59.56;101625.02;1885739;76;20999;-75
2023/09/26 09:23:07;;;;;;;13.88;9.38;;;;;;;22.84;59.54;101626.66;1810886;79;21507;-71
2023/09/26 09:25:38;;;;;;;12.18;8.70;;;;;;;22.81;59.71;101633.30;1810765;79;21082;-74
2023/09/26 09:28:07;;;;;;;13.75;10.05;;;;;;;22.76;59.75;101633.47;1810786;79;21019;-74
2023/09/26 09:30:43;;;;;;;24.40;16.48;;;;;;;22.74;59.83;101630.04;1885478;76;21033;-74
2023/09/26 09:33:14;;;;;;;15.63;10.00;;;;;;;22.71;59.82;101629.69;1810908;79;21007;-77
2023/09/26 09:35:43;;;;;;;13.98;9.45;;;;;;;22.67;60.20;101628.48;1780162;79;21082;-77
2023/09/26 09:38:13;;;;;;;14.43;9.00;;;;;;;22.66;60.37;101633.23;1852591;76;21039;-79
2023/09/26 09:40:43;;;;;;;14.58;9.60;;;;;;;22.67;60.32;101626.54;1775219;78;21093;-75
2023/09/26 09:43:13;;;;;;;16.97;9.18;;;;;;;22.69;60.45;101626.30;1813997;79;21419;-75
2023/09/26 09:45:43;;;;;;;33.67;9.38;;;;;;;22.68;60.17;101631.58;1785269;79;21329;-80
2023/09/26 09:48:13;;;;;;;13.10;8.43;;;;;;;22.69;60.48;101634.67;1785768;79;21089;-77
2023/09/26 09:50:44;;;;;;;18.73;9.18;;;;;;;22.70;60.59;101627.44;1813813;79;21542;-75
2023/09/26 09:53:14;;;;;;;11.28;8.28;;;;;;;22.72;60.68;101632.23;1814078;79;20987;-77
2023/09/26 09:55:44;;;;;;;11.40;8.23;;;;;;;22.76;60.66;101620.89;1814305;79;21054;-77
2023/09/26 09:58:13;;;;;;;14.38;8.53;;;;;;;22.77;60.75;101626.78;1813956;79;21540;-75
2023/09/26 10:00:43;;;;;;;21.27;8.80;;;;;;;22.76;60.65;101616.70;1785209;79;21082;-76
2023/09/26 10:03:14;;;;;;;12.40;9.45;;;;;;;22.74;61.08;101626.39;1793569;79;21145;-74
2023/09/26 10:05:45;;;;;;;13.08;8.43;;;;;;;22.79;61.27;101619.54;1735865;81;21054;-76
2023/09/26 10:08:14;;;;;;;13.50;8.18;;;;;;;22.83;61.43;101612.94;1735956;81;21116;-75
2023/09/26 10:10:44;;;;;;;17.70;8.85;;;;;;;22.85;61.40;101614.38;1765581;81;21055;-74
2023/09/26 10:13:15;;;;;;;11.75;8.08;;;;;;;22.86;61.40;101618.88;1765285;81;21074;-75
2023/09/26 10:16:06;;;;;;;14.60;8.85;;;;;;;22.87;61.54;101615.53;1787964;80;21094;-74
2023/09/26 10:18:40;;;;;;;11.78;8.65;;;;;;;22.85;61.47;101614.38;1792439;80;21027;-76
2023/09/26 10:21:35;;;;;;;10.93;8.35;;;;;;;22.87;61.71;101621.97;1792503;80;21030;-75
2023/09/26 10:24:16;;;;;;;13.32;8.85;;;;;;;22.85;61.63;101626.96;1765114;81;21923;-73
2023/09/26 10:26:50;;;;;;;11.43;8.38;;;;;;;22.78;61.89;101621.48;1735163;83;21056;-74
2023/09/26 10:29:29;;;;;;;14.30;8.60;;;;;;;22.76;62.06;101622.28;1792160;80;21146;-74
2023/09/26 10:32:05;;;;;;;11.78;7.97;;;;;;;22.74;62.08;101614.67;1792206;80;21090;-73
2023/09/26 10:34:37;;;;;;;15.78;8.18;;;;;;;22.74;62.08;101609.63;1792537;80;21114;-76
2023/09/26 10:37:09;;;;;;;12.40;8.70;;;;;;;22.73;62.08;101610.17;1761099;81;21039;-73
2023/09/26 10:39:40;;;;;;;12.25;7.97;;;;;;;22.74;62.15;101613.82;1711794;81;21056;-76
2023/09/26 10:42:20;;;;;;;10.80;8.25;;;;;;;22.69;62.13;101613.17;1797009;80;21058;-76
2023/09/26 10:44:51;;;;;;;11.60;7.75;;;;;;;22.68;62.36;101600.30;1753873;81;21021;-72
2023/09/26 10:47:22;;;;;;;13.45;8.80;;;;;;;22.70;62.34;101608.43;1796928;80;21010;-73
2023/09/26 10:49:52;;;;;;;10.53;7.97;;;;;;;22.70;62.45;101603.69;1791050;80;20996;-74
2023/09/26 10:52:21;;;;;;;13.13;8.03;;;;;;;22.69;62.44;101603.94;1791313;80;20989;-75
2023/09/26 10:54:51;;;;;;;10.68;8.05;;;;;;;22.70;62.54;101604.23;1733147;80;21492;-74
2023/09/26 10:57:23;;;;;;;13.55;8.30;;;;;;;22.73;62.65;101599.55;1790991;80;20992;-73
2023/09/26 10:59:54;;;;;;;12.40;7.70;;;;;;;22.76;62.68;101599.08;1791009;80;21064;-75
2023/09/26 11:02:23;;;;;;;11.10;8.18;;;;;;;22.81;62.68;101598.36;1802582;79;21025;-74
2023/09/26 11:04:53;;;;;;;11.38;8.48;;;;;;;22.84;62.60;101598.71;1885468;76;21015;-75
2023/09/26 11:07:24;;;;;;;12.47;7.80;;;;;;;22.86;62.47;101597.91;1810745;79;21042;-73
2023/09/26 11:09:55;;;;;;;13.20;8.10;;;;;;;22.87;62.43;101602.41;1885505;75;20987;-72
2023/09/26 11:12:26;;;;;;;11.20;8.30;;;;;;;22.88;62.31;101600.45;1810819;79;21459;-75
2023/09/26 11:14:56;;;;;;;14.53;8.33;;;;;;;22.87;62.33;101592.63;1885504;76;21445;-76
2023/09/26 11:17:27;;;;;;;9.35;7.72;;;;;;;22.88;62.08;101596.27;1810861;79;21035;-76
2023/09/26 11:19:57;;;;;;;12.30;7.70;;;;;;;22.92;62.15;101597.46;1885268;76;21454;-76
2023/09/26 11:22:26;;;;;;;17.50;9.88;;;;;;;22.95;62.10;101585.23;1810834;79;21023;-76
2023/09/26 11:25:07;;;;;;;12.58;7.75;;;;;;;23.00;61.96;101590.91;1885562;76;21007;-76